• Join FlightAware (Why Join?)
  • Login
  • US Flag 
03:52AM EST


 

Airport Tracker/Info


-or-


 

Live Flight TrackerFlight Track Log ✈ SWA1035 ✈ 06-May-2013 ✈ KABQ - KPDX

Flight Track Log - Related Links

Times and Time Zones

All times are in EDT time to prevent confusion due to time zone crossing. See the SWA1035 flight status page for this flight to view local times or setup timezone preferences in your user account.

Time Position Orientation Groundspeed Altitude Reporting Facility
EDT Latitude Longitude Course Direction KTS MPH feet Rate Location/Type
05:00PM 35.0758 -106.6950 323° Northwest 245 282 8,000  Level Albuquerque Center
05:00PM 35.1022 -106.7197 323° Northwest 291 335 9,300 3,120 Climbing Albuquerque Center
05:01PM 35.1775 -106.7603 336° Northwest 324 373 12,500 2,940 Climbing Albuquerque Center
05:03PM 35.2927 -106.8345 332° Northwest  Level FlightAware Approximate
05:03PM 35.3078 -106.8131 332° Northwest 316 364 17,300  Level Albuquerque Center
05:04PM 35.4242 -106.8631 341° North 369 425 20,200 2,460 Climbing Albuquerque Center
05:06PM 35.5619 -106.9319 338° Northwest 381 438 23,800 2,520 Climbing Denver Center
05:07PM 35.7192 -107.0128 337° Northwest 386 444 28,100 2,340 Climbing Albuquerque Center
05:09PM 35.8814 -107.0961 337° Northwest 391 450 31,200 1,740 Climbing Denver Center
05:09PM 35.9225 -107.1175 337° Northwest 393 452 31,800 1,500 Climbing Albuquerque Center
05:10PM 36.0453 -107.1808 337° Northwest 404 465 33,500 1,380 Climbing Albuquerque Center
05:11PM 36.1475 -107.2331 338° Northwest 411 473 34,700 1,080 Climbing Albuquerque Center
05:12PM 36.2708 -107.2961 338° Northwest 424 488 35,800 960 Climbing Albuquerque Center
05:13PM 36.3789 -107.3522 337° Northwest 434 499 36,700 1,080 Climbing Albuquerque Center
05:14PM 36.4425 -107.4081 325° Northwest 443 510 37,500 780 Climbing Denver Center
05:15PM 36.5214 -107.5081 314° West 426 490 38,000 180 Climbing Denver Center
05:16PM 36.6600 -107.6806 315° West 437 503 38,000  Level Albuquerque Center
05:18PM 36.7448 -107.7932 310° West  Level Estimated
05:19PM 36.8764 -107.9519 310° West 436 502 38,000  Level Denver Center
05:21PM 37.0181 -108.1281 315° West 436 502 38,000  Level Salt Lake Center
05:21PM 37.0531 -108.1747 313° West 437 503 38,000  Level Denver Center
05:23PM 37.2124 -108.2254 346° North  Level FlightAware Approximate
05:23PM 37.2297 -108.3997 346° North 437 503 38,000  Level Denver Center
05:24PM 37.3106 -108.5036 314° West 434 499 38,000  Level Denver Center
05:25PM 37.4050 -108.6225 315° West 432 497 38,000  Level Denver Center
05:26PM 37.4856 -108.7272 314° West 435 501 38,000  Level Denver Center
05:27PM 37.5806 -108.8489 315° West 437 503 38,000  Level Denver Center
05:28PM 37.6611 -108.9525 314° West 434 499 38,000  Level Denver Center
05:29PM 37.7556 -109.0769 314° West 438 504 38,000  Level Denver Center
05:30PM 37.8369 -109.1819 314° West 437 503 38,000  Level Denver Center
05:31PM 37.9189 -109.2897 314° West 444 511 38,000  Level Denver Center
05:32PM 38.0142 -109.4158 314° West 444 511 38,000  Level Denver Center
05:34PM 38.1053 -109.5353 314° West 444 511 38,000  Level Denver Center
05:35PM 38.1878 -109.6450 314° West 448 516 38,000  Level Denver Center
05:36PM 38.2842 -109.7728 314° West 447 514 38,000  Level Denver Center
05:37PM 38.4089 -109.9392 314° West 448 516 38,000  Level Salt Lake Center
05:38PM 38.4617 -110.0111 313° West 445 512 38,000  Level Denver Center
05:39PM 38.5442 -110.1208 314° West 445 512 38,000  Level Denver Center
05:39PM 38.5867 -110.1786 313° West 447 514 38,000  Level Salt Lake Center
05:40PM 38.6831 -110.3075 314° West 449 517 38,000  Level Salt Lake Center
05:41PM 38.7214 -110.3606 313° West 446 513 38,000  Level Denver Center
05:42PM 38.8600 -110.5481 314° West 446 513 38,000  Level Salt Lake Center
05:43PM 38.9006 -110.6042 313° West 452 520 38,000  Level Denver Center
05:43PM 38.9431 -110.6619 313° West 452 520 38,000  Level Salt Lake Center
05:44PM 39.0228 -110.7728 313° West 445 512 38,000  Level Salt Lake Center
05:45PM 39.1183 -110.9044 313° West 448 516 38,000  Level Salt Lake Center
05:46PM 39.1994 -111.0161 313° West 447 514 38,000  Level Salt Lake Center
05:47PM 39.2958 -111.1500 313° West 454 522 38,000  Level Salt Lake Center
05:48PM 39.3772 -111.2633 313° West 450 518 38,000  Level Salt Lake Center
05:51PM 39.5424 -111.4843 313° West  Level FlightAware Approximate
05:52PM 39.6442 -111.6397 313° West 451 519 38,000  Level Salt Lake Center
05:53PM 39.7292 -111.7586 313° West 449 517 38,000  Level Salt Lake Center
05:55PM 39.8818 -111.9754 313° West  Level FlightAware Approximate
05:56PM 39.9811 -112.1172 313° West 448 516 38,000  Level Salt Lake Center
05:57PM 40.0644 -112.2378 312° West 448 516 38,000  Level Salt Lake Center
05:58PM 40.1492 -112.3597 312° West 451 519 38,000  Level Salt Lake Center
05:59PM 40.2339 -112.4814 312° West 452 520 38,000  Level Salt Lake Center
06:00PM 40.3339 -112.6294 312° West 452 520 38,000  Level Salt Lake Center
06:01PM 40.4183 -112.7536 312° West 454 522 38,000  Level Salt Lake Center
06:03PM 40.5513 -112.9476 314° West  Level FlightAware Approximate
06:03PM 40.5875 -113.0019 314° West 456 525 38,000  Level Salt Lake Center
06:05PM 40.7195 -113.1870 311° West  Level FlightAware Approximate
06:05PM 40.7553 -113.2506 311° West 452 520 38,000  Level Salt Lake Center
06:06PM 40.8386 -113.3739 312° West 450 518 38,000  Level Salt Lake Center
06:07PM 40.9208 -113.4983 311° West 449 517 38,000  Level Salt Lake Center
06:08PM 41.0031 -113.6244 311° West 452 520 38,000  Level Salt Lake Center
06:09PM 41.1036 -113.7747 312° West 453 521 38,000  Level Salt Lake Center
06:10PM 41.1850 -113.9014 311° West 453 521 38,000  Level Salt Lake Center
06:12PM 41.3001 -114.0704 311° West  Level FlightAware Approximate
06:12PM 41.3494 -114.1519 311° West 449 517 38,000  Level Salt Lake Center
06:13PM 41.4328 -114.2775 312° West 452 520 38,000  Level Salt Lake Center
06:15PM 41.5994 -114.5367 311° West 442 509 38,000  Level Salt Lake Center
06:16PM 41.6886 -114.6778 310° West 444 511 38,000  Level Salt Lake Center
06:17PM 41.7661 -114.7967 311° West 444 511 38,000  Level Salt Lake Center
06:18PM 41.8444 -114.9200 310° West 456 525 38,000  Level Salt Lake Center
06:19PM 41.9333 -115.0600 311° West 444 511 38,000  Level Salt Lake Center
06:20PM 42.0106 -115.1819 310° West 447 514 38,000 240 Level Salt Lake Center
06:21PM 42.0967 -115.3206 310° West 450 518 38,500 540 Climbing Salt Lake Center
06:22PM 42.1742 -115.4456 310° West 452 520 39,200 600 Climbing Salt Lake Center
06:23PM 42.2661 -115.5931 310° West 459 528 39,800 360 Climbing Salt Lake Center
06:24PM 42.3461 -115.7222 310° West 466 536 40,000 60 Climbing Salt Lake Center
06:26PM 42.4280 -115.8549 310° West  Level FlightAware Approximate
06:26PM 42.5119 -115.9931 310° West 450 518 40,000  Level Salt Lake Center
06:28PM 42.5898 -116.1203 310° West  Level FlightAware Approximate
06:29PM 42.6769 -116.2658 310° West 451 519 40,000  Level Salt Lake Center
06:30PM 42.7544 -116.3919 310° West 454 522 40,000  Level Salt Lake Center
06:31PM 42.8436 -116.5400 309° West 453 521 40,000  Level Salt Lake Center
06:32PM 42.9192 -116.6678 309° West 453 521 40,000  Level Salt Lake Center
06:33PM 42.9958 -116.7978 309° West 457 526 40,000  Level Salt Lake Center
06:34PM 43.0864 -116.9467 310° West 454 522 40,000  Level Salt Lake Center
06:35PM 43.1619 -117.0769 309° West 455 524 40,000  Level Salt Lake Center
06:36PM 43.2511 -117.2292 309° West 456 525 40,000  Level Salt Lake Center
06:37PM 43.3281 -117.3586 309° West 456 525 40,000  Level Salt Lake Center
06:38PM 43.4667 -117.5975 309° West 456 525 40,000  Level Seattle Center
06:39PM 43.4911 -117.6414 308° West 454 522 40,000  Level Salt Lake Center
06:40PM 43.5672 -117.7717 309° West 455 524 40,000  Level Salt Lake Center
06:41PM 43.6969 -118.0208 306° West 456 525 40,000  Level Seattle Center
06:42PM 43.7125 -118.0739 292° West 462 532 40,000  Level Salt Lake Center
06:43PM 43.7683 -118.2233 297° West 459 528 40,000  Level Salt Lake Center
06:44PM 43.8247 -118.3769 297° West 459 528 40,000  Level Salt Lake Center
06:45PM 43.8825 -118.5339 297° West 457 526 40,000  Level Salt Lake Center
06:46PM 43.9419 -118.6925 298° West 462 532 40,000  Level Salt Lake Center
06:47PM 44.0103 -118.8831 297° West 461 531 40,000  Level Salt Lake Center
06:48PM 44.0492 -118.9767 300° West 462 532 40,000  Level Seattle Center
06:49PM 44.1372 -119.1008 315° West 455 524 40,000  Level Seattle Center
06:50PM 44.2314 -119.2164 319° Northwest 452 520 40,000  Level Seattle Center
06:52PM 44.4250 -119.4431 320° Northwest 455 524 40,000  Level Seattle Center
06:54PM 44.6183 -119.6739 320° Northwest 456 525 40,000  Level Seattle Center
06:55PM 44.7017 -119.8103 311° West 464 534 40,000  Level Seattle Center
06:56PM 44.7797 -119.9561 307° West 463 533 40,000 -1,080 Level Seattle Center
06:58PM 44.9361 -120.2533 307° West 463 533 36,800 -2,040 Descending Seattle Center
06:59PM 45.0144 -120.4036 306° West 468 539 33,900 -2,700 Descending Seattle Center
07:01PM 45.1307 -120.6394 290° West  Level FlightAware Approximate
07:02PM 45.2458 -120.8475 290° West 453 521 25,900  Level Seattle Center
07:04PM 45.3576 -121.0848 307° West  Level FlightAware Approximate
07:04PM 45.3714 -121.1775 307° West 433 498 19,700  Level Seattle Center
07:05PM 45.4122 -121.3319 291° West 416 479 17,300 -2,280 Descending Seattle Center
07:06PM 45.4506 -121.4656 292° West 383 441 15,400 -2,040 Descending Seattle Center
07:07PM 45.4792 -121.6161 285° West 368 423 13,200 -1,980 Descending Seattle Center
07:07PM 45.4894 -121.6900 281° West 353 406 12,200 -1,980 Descending Seattle Center
07:08PM 45.4953 -121.7544 277° West 353 406 11,200 -1,440 Descending Seattle Center
07:09PM 45.5111 -121.8836 280° West 333 383 10,000 -960 Descending Seattle Center
07:09PM 45.5106 -121.9469 269° West 283 326 9,800 -1,380 Descending Seattle Center
07:10PM 45.5022 -121.9992 257° West 287 330 8,600 -2,100 Descending Seattle Center
07:10PM 45.5014 -122.0589 269° West 289 333 7,700 -1,980 Descending Seattle Center
07:11PM 45.5025 -122.1694 271° West 282 325 5,700 -1,800 Descending Seattle Center
07:12PM 45.5172 -122.2839 280° West 272 313 4,100 -1,140 Descending Seattle Center
07:13PM 45.5231 -122.3269 281° West 274 315 3,900 -540 Descending Seattle Center
07:13PM 45.5272 -122.3753 277° West 224 258 3,600 -900 Descending Seattle Center
07:14PM 45.5328 -122.4097 283° West 234 269 3,000 -1,020 Descending Seattle Center
07:14PM 45.5353 -122.4461 276° West 157 181 2,600 -1,260 Descending Seattle Center
07:15PM 45.5567 -122.4989 300° West 146 168 1,200 -1,080 Descending Seattle Center
07:16PM 45.5642 -122.5161 302° West 153 176 900 -600 Descending Seattle Center
07:17PM 45.5842 -122.5672 299° West 145 167 300 -600 Descending Seattle Center
07:19PM 45.5833 -122.5833 282° West  Level FlightAware Approximate
07:26PM 45.5887 -122.5969 282° West  Level Estimated
07:27PM 45.5887 -122.5969 282° West  Level Estimated
07:28PM 45.5887 -122.5969 282° West  Level Estimated
07:29PM 45.5887 -122.5969 282° West  Level Estimated
07:30PM 45.5887 -122.5969 282° West  Level Estimated
07:31PM 45.5887 -122.5969 282° West  Level Estimated
07:32PM 45.5887 -122.5969 282° West  Level Estimated
07:33PM 45.5887 -122.5969 282° West  Level Estimated
07:34PM 45.5887 -122.5969 282° West  Level Estimated